sensor_id;sensor_type;location;lat;lon;timestamp;P1;durP1;ratioP1;P2;durP2;ratioP2
46815;SDS011;32787;53.316;8.670;2022-12-07T00:01:09;32.42;;;13.30;;
46815;SDS011;32787;53.316;8.670;2022-12-07T00:04:00;30.00;;;12.35;;
46815;SDS011;32787;53.316;8.670;2022-12-07T00:06:51;22.33;;;11.93;;
46815;SDS011;32787;53.316;8.670;2022-12-07T00:09:38;22.85;;;10.25;;
46815;SDS011;32787;53.316;8.670;2022-12-07T00:12:24;23.00;;;10.63;;
46815;SDS011;32787;53.316;8.670;2022-12-07T00:15:10;25.20;;;10.70;;
46815;SDS011;32787;53.316;8.670;2022-12-07T00:17:56;18.85;;;9.15;;
46815;SDS011;32787;53.316;8.670;2022-12-07T00:20:41;18.17;;;8.48;;
46815;SDS011;32787;53.316;8.670;2022-12-07T00:23:27;20.77;;;8.35;;
46815;SDS011;32787;53.316;8.670;2022-12-07T00:29:03;18.48;;;8.70;;
46815;SDS011;32787;53.316;8.670;2022-12-07T00:31:51;19.83;;;8.90;;
46815;SDS011;32787;53.316;8.670;2022-12-07T00:34:37;20.30;;;7.95;;
46815;SDS011;32787;53.316;8.670;2022-12-07T00:37:23;21.60;;;8.57;;
46815;SDS011;32787;53.316;8.670;2022-12-07T00:40:09;22.20;;;9.43;;
46815;SDS011;32787;53.316;8.670;2022-12-07T00:42:55;25.40;;;9.18;;
46815;SDS011;32787;53.316;8.670;2022-12-07T00:45:41;21.92;;;8.50;;
46815;SDS011;32787;53.316;8.670;2022-12-07T00:48:27;21.58;;;9.10;;
46815;SDS011;32787;53.316;8.670;2022-12-07T00:51:13;20.05;;;8.00;;
46815;SDS011;32787;53.316;8.670;2022-12-07T00:54:00;16.88;;;8.05;;
46815;SDS011;32787;53.316;8.670;2022-12-07T00:56:46;19.75;;;7.55;;
46815;SDS011;32787;53.316;8.670;2022-12-07T00:59:32;18.25;;;7.57;;
46815;SDS011;32787;53.316;8.670;2022-12-07T01:02:18;17.83;;;7.22;;
46815;SDS011;32787;53.316;8.670;2022-12-07T01:05:04;17.40;;;7.15;;
46815;SDS011;32787;53.316;8.670;2022-12-07T01:07:50;17.17;;;6.45;;
46815;SDS011;32787;53.316;8.670;2022-12-07T01:10:36;14.70;;;5.80;;
46815;SDS011;32787;53.316;8.670;2022-12-07T01:13:22;14.18;;;5.20;;
46815;SDS011;32787;53.316;8.670;2022-12-07T01:16:10;16.42;;;5.03;;
46815;SDS011;32787;53.316;8.670;2022-12-07T01:18:58;11.25;;;4.07;;
46815;SDS011;32787;53.316;8.670;2022-12-07T01:21:46;13.32;;;3.97;;
46815;SDS011;32787;53.316;8.670;2022-12-07T01:24:32;12.50;;;3.63;;
46815;SDS011;32787;53.316;8.670;2022-12-07T01:27:18;12.15;;;3.70;;
46815;SDS011;32787;53.316;8.670;2022-12-07T01:30:04;10.48;;;2.85;;
46815;SDS011;32787;53.316;8.670;2022-12-07T01:32:52;9.93;;;2.60;;
46815;SDS011;32787;53.316;8.670;2022-12-07T01:35:37;9.32;;;2.88;;
46815;SDS011;32787;53.316;8.670;2022-12-07T01:38:23;12.32;;;2.85;;
46815;SDS011;32787;53.316;8.670;2022-12-07T01:41:09;9.45;;;2.55;;
46815;SDS011;32787;53.316;8.670;2022-12-07T01:44:10;5.85;;;1.30;;
46815;SDS011;32787;53.316;8.670;2022-12-07T01:47:15;10.02;;;1.50;;
46815;SDS011;32787;53.316;8.670;2022-12-07T01:50:01;4.93;;;1.40;;
46815;SDS011;32787;53.316;8.670;2022-12-07T01:52:48;4.20;;;1.10;;
46815;SDS011;32787;53.316;8.670;2022-12-07T01:55:37;7.07;;;1.25;;
46815;SDS011;32787;53.316;8.670;2022-12-07T01:58:26;6.45;;;1.00;;
46815;SDS011;32787;53.316;8.670;2022-12-07T02:01:13;6.78;;;1.20;;
46815;SDS011;32787;53.316;8.670;2022-12-07T02:03:59;11.10;;;1.02;;
46815;SDS011;32787;53.316;8.670;2022-12-07T02:06:45;7.78;;;1.13;;
46815;SDS011;32787;53.316;8.670;2022-12-07T02:09:32;6.13;;;1.35;;
46815;SDS011;32787;53.316;8.670;2022-12-07T02:12:18;11.52;;;1.70;;
46815;SDS011;32787;53.316;8.670;2022-12-07T02:15:05;6.40;;;0.80;;
46815;SDS011;32787;53.316;8.670;2022-12-07T02:20:53;6.38;;;1.33;;
46815;SDS011;32787;53.316;8.670;2022-12-07T02:30:05;7.57;;;1.70;;
46815;SDS011;32787;53.316;8.670;2022-12-07T02:33:11;6.38;;;2.30;;
46815;SDS011;32787;53.316;8.670;2022-12-07T02:36:07;7.72;;;2.05;;
46815;SDS011;32787;53.316;8.670;2022-12-07T02:38:59;10.20;;;2.90;;
46815;SDS011;32787;53.316;8.670;2022-12-07T02:41:55;8.80;;;2.40;;
46815;SDS011;32787;53.316;8.670;2022-12-07T02:44:46;7.30;;;2.67;;
46815;SDS011;32787;53.316;8.670;2022-12-07T02:47:32;8.15;;;2.30;;
46815;SDS011;32787;53.316;8.670;2022-12-07T02:50:21;10.43;;;2.70;;
46815;SDS011;32787;53.316;8.670;2022-12-07T02:53:27;10.90;;;2.30;;
46815;SDS011;32787;53.316;8.670;2022-12-07T02:56:27;7.70;;;2.10;;
46815;SDS011;32787;53.316;8.670;2022-12-07T03:11:25;8.13;;;1.80;;
46815;SDS011;32787;53.316;8.670;2022-12-07T03:14:25;6.30;;;1.50;;
46815;SDS011;32787;53.316;8.670;2022-12-07T03:17:22;5.65;;;1.60;;
46815;SDS011;32787;53.316;8.670;2022-12-07T03:20:13;5.90;;;1.20;;
46815;SDS011;32787;53.316;8.670;2022-12-07T03:23:03;3.17;;;1.02;;
46815;SDS011;32787;53.316;8.670;2022-12-07T03:25:52;4.95;;;1.00;;
46815;SDS011;32787;53.316;8.670;2022-12-07T03:28:47;7.68;;;1.50;;
46815;SDS011;32787;53.316;8.670;2022-12-07T03:31:44;5.45;;;1.00;;
46815;SDS011;32787;53.316;8.670;2022-12-07T03:34:44;7.97;;;1.20;;
46815;SDS011;32787;53.316;8.670;2022-12-07T03:37:40;2.38;;;0.80;;
46815;SDS011;32787;53.316;8.670;2022-12-07T03:40:35;5.30;;;0.80;;
46815;SDS011;32787;53.316;8.670;2022-12-07T03:43:27;4.50;;;0.95;;
46815;SDS011;32787;53.316;8.670;2022-12-07T03:46:19;9.43;;;1.38;;
46815;SDS011;32787;53.316;8.670;2022-12-07T03:54:53;5.45;;;1.13;;
46815;SDS011;32787;53.316;8.670;2022-12-07T03:57:43;4.32;;;1.00;;
46815;SDS011;32787;53.316;8.670;2022-12-07T04:00:32;5.88;;;1.33;;
46815;SDS011;32787;53.316;8.670;2022-12-07T04:03:19;5.85;;;1.02;;
46815;SDS011;32787;53.316;8.670;2022-12-07T04:06:04;7.05;;;1.60;;
46815;SDS011;32787;53.316;8.670;2022-12-07T04:08:51;9.80;;;1.52;;
46815;SDS011;32787;53.316;8.670;2022-12-07T04:11:37;9.75;;;1.60;;
46815;SDS011;32787;53.316;8.670;2022-12-07T04:14:23;7.90;;;1.40;;
46815;SDS011;32787;53.316;8.670;2022-12-07T04:17:08;9.10;;;1.85;;
46815;SDS011;32787;53.316;8.670;2022-12-07T04:19:54;4.47;;;1.30;;
46815;SDS011;32787;53.316;8.670;2022-12-07T04:22:40;6.78;;;1.33;;
46815;SDS011;32787;53.316;8.670;2022-12-07T04:25:26;7.13;;;1.17;;
46815;SDS011;32787;53.316;8.670;2022-12-07T04:28:12;7.70;;;1.20;;
46815;SDS011;32787;53.316;8.670;2022-12-07T04:30:58;4.40;;;1.13;;
46815;SDS011;32787;53.316;8.670;2022-12-07T04:33:44;4.47;;;1.00;;
46815;SDS011;32787;53.316;8.670;2022-12-07T04:36:30;5.55;;;1.30;;
46815;SDS011;32787;53.316;8.670;2022-12-07T04:39:24;5.38;;;1.45;;
46815;SDS011;32787;53.316;8.670;2022-12-07T04:42:11;7.82;;;1.23;;
46815;SDS011;32787;53.316;8.670;2022-12-07T04:44:58;2.88;;;0.82;;
46815;SDS011;32787;53.316;8.670;2022-12-07T04:47:44;4.45;;;0.82;;
46815;SDS011;32787;53.316;8.670;2022-12-07T04:50:30;3.67;;;0.70;;
46815;SDS011;32787;53.316;8.670;2022-12-07T04:53:15;5.63;;;0.80;;
46815;SDS011;32787;53.316;8.670;2022-12-07T04:56:01;4.57;;;0.60;;
46815;SDS011;32787;53.316;8.670;2022-12-07T04:58:48;3.53;;;0.90;;
46815;SDS011;32787;53.316;8.670;2022-12-07T05:01:34;3.63;;;0.93;;
46815;SDS011;32787;53.316;8.670;2022-12-07T05:04:20;5.93;;;0.77;;
46815;SDS011;32787;53.316;8.670;2022-12-07T05:07:06;6.13;;;0.73;;
46815;SDS011;32787;53.316;8.670;2022-12-07T05:09:52;4.28;;;0.68;;
46815;SDS011;32787;53.316;8.670;2022-12-07T05:12:37;4.03;;;0.90;;
46815;SDS011;32787;53.316;8.670;2022-12-07T05:15:23;3.97;;;0.90;;
46815;SDS011;32787;53.316;8.670;2022-12-07T05:18:10;4.40;;;1.10;;
46815;SDS011;32787;53.316;8.670;2022-12-07T05:20:57;3.92;;;1.13;;
46815;SDS011;32787;53.316;8.670;2022-12-07T05:23:43;7.22;;;1.25;;
46815;SDS011;32787;53.316;8.670;2022-12-07T05:26:29;8.30;;;1.23;;
46815;SDS011;32787;53.316;8.670;2022-12-07T05:29:16;6.03;;;1.60;;
46815;SDS011;32787;53.316;8.670;2022-12-07T05:32:02;7.15;;;1.30;;
46815;SDS011;32787;53.316;8.670;2022-12-07T05:34:48;6.50;;;1.50;;
46815;SDS011;32787;53.316;8.670;2022-12-07T05:37:34;4.68;;;1.48;;
46815;SDS011;32787;53.316;8.670;2022-12-07T05:40:20;9.75;;;1.63;;
46815;SDS011;32787;53.316;8.670;2022-12-07T05:43:06;7.15;;;1.60;;
46815;SDS011;32787;53.316;8.670;2022-12-07T05:45:52;6.80;;;1.45;;
46815;SDS011;32787;53.316;8.670;2022-12-07T05:48:38;4.72;;;1.30;;
46815;SDS011;32787;53.316;8.670;2022-12-07T05:51:24;11.15;;;1.52;;
46815;SDS011;32787;53.316;8.670;2022-12-07T05:54:10;8.88;;;1.48;;
46815;SDS011;32787;53.316;8.670;2022-12-07T05:56:56;3.17;;;0.95;;
46815;SDS011;32787;53.316;8.670;2022-12-07T05:59:42;8.48;;;1.27;;
46815;SDS011;32787;53.316;8.670;2022-12-07T06:02:27;6.88;;;1.20;;
46815;SDS011;32787;53.316;8.670;2022-12-07T06:05:13;11.40;;;1.70;;
46815;SDS011;32787;53.316;8.670;2022-12-07T06:07:59;5.57;;;0.95;;
46815;SDS011;32787;53.316;8.670;2022-12-07T06:10:46;4.55;;;0.80;;
46815;SDS011;32787;53.316;8.670;2022-12-07T06:13:52;10.10;;;0.90;;
46815;SDS011;32787;53.316;8.670;2022-12-07T06:16:38;10.18;;;1.50;;
46815;SDS011;32787;53.316;8.670;2022-12-07T06:19:24;3.60;;;0.60;;
46815;SDS011;32787;53.316;8.670;2022-12-07T06:22:10;7.03;;;1.20;;
46815;SDS011;32787;53.316;8.670;2022-12-07T06:24:57;2.42;;;0.70;;
46815;SDS011;32787;53.316;8.670;2022-12-07T06:27:43;6.38;;;1.20;;
46815;SDS011;32787;53.316;8.670;2022-12-07T06:30:28;7.82;;;0.70;;
46815;SDS011;32787;53.316;8.670;2022-12-07T06:33:14;3.15;;;0.60;;
46815;SDS011;32787;53.316;8.670;2022-12-07T06:36:00;6.55;;;0.85;;
46815;SDS011;32787;53.316;8.670;2022-12-07T06:38:46;4.40;;;0.60;;
46815;SDS011;32787;53.316;8.670;2022-12-07T06:41:32;6.88;;;0.70;;
46815;SDS011;32787;53.316;8.670;2022-12-07T06:44:18;3.80;;;0.60;;
46815;SDS011;32787;53.316;8.670;2022-12-07T06:47:05;4.57;;;0.90;;
46815;SDS011;32787;53.316;8.670;2022-12-07T06:49:53;7.63;;;1.00;;
46815;SDS011;32787;53.316;8.670;2022-12-07T06:52:39;2.70;;;0.65;;
46815;SDS011;32787;53.316;8.670;2022-12-07T06:55:24;6.35;;;1.52;;
46815;SDS011;32787;53.316;8.670;2022-12-07T06:58:10;11.73;;;2.13;;
46815;SDS011;32787;53.316;8.670;2022-12-07T07:00:56;7.38;;;1.65;;
46815;SDS011;32787;53.316;8.670;2022-12-07T07:03:42;7.13;;;1.55;;
46815;SDS011;32787;53.316;8.670;2022-12-07T07:06:29;6.72;;;1.35;;
46815;SDS011;32787;53.316;8.670;2022-12-07T07:09:15;4.60;;;1.10;;
46815;SDS011;32787;53.316;8.670;2022-12-07T07:12:01;5.72;;;1.30;;
46815;SDS011;32787;53.316;8.670;2022-12-07T07:14:47;5.65;;;1.50;;
46815;SDS011;32787;53.316;8.670;2022-12-07T07:17:33;11.23;;;2.50;;
46815;SDS011;32787;53.316;8.670;2022-12-07T07:20:18;6.18;;;1.73;;
46815;SDS011;32787;53.316;8.670;2022-12-07T07:23:05;9.00;;;1.67;;
46815;SDS011;32787;53.316;8.670;2022-12-07T07:25:51;8.50;;;1.70;;
46815;SDS011;32787;53.316;8.670;2022-12-07T07:28:37;8.38;;;1.80;;
46815;SDS011;32787;53.316;8.670;2022-12-07T07:31:23;8.13;;;1.35;;
46815;SDS011;32787;53.316;8.670;2022-12-07T07:34:09;7.85;;;1.30;;
46815;SDS011;32787;53.316;8.670;2022-12-07T07:36:55;5.18;;;1.42;;
46815;SDS011;32787;53.316;8.670;2022-12-07T07:39:41;7.78;;;1.42;;
46815;SDS011;32787;53.316;8.670;2022-12-07T07:42:26;9.73;;;1.58;;
46815;SDS011;32787;53.316;8.670;2022-12-07T07:45:12;4.95;;;1.08;;
46815;SDS011;32787;53.316;8.670;2022-12-07T07:47:58;10.25;;;1.40;;
46815;SDS011;32787;53.316;8.670;2022-12-07T07:50:44;6.47;;;2.00;;
46815;SDS011;32787;53.316;8.670;2022-12-07T07:53:30;9.38;;;1.40;;
46815;SDS011;32787;53.316;8.670;2022-12-07T07:56:16;7.07;;;1.50;;
46815;SDS011;32787;53.316;8.670;2022-12-07T07:59:02;7.97;;;1.27;;
46815;SDS011;32787;53.316;8.670;2022-12-07T08:01:48;6.18;;;1.65;;
46815;SDS011;32787;53.316;8.670;2022-12-07T08:04:34;8.45;;;1.40;;
46815;SDS011;32787;53.316;8.670;2022-12-07T08:07:21;5.70;;;1.42;;
46815;SDS011;32787;53.316;8.670;2022-12-07T08:10:08;6.70;;;1.50;;
46815;SDS011;32787;53.316;8.670;2022-12-07T08:12:56;8.43;;;1.27;;
46815;SDS011;32787;53.316;8.670;2022-12-07T08:15:58;8.55;;;1.52;;
46815;SDS011;32787;53.316;8.670;2022-12-07T08:18:49;9.63;;;1.90;;
46815;SDS011;32787;53.316;8.670;2022-12-07T08:21:35;6.88;;;1.15;;
46815;SDS011;32787;53.316;8.670;2022-12-07T08:24:22;10.15;;;1.50;;
46815;SDS011;32787;53.316;8.670;2022-12-07T08:27:10;5.30;;;1.38;;
46815;SDS011;32787;53.316;8.670;2022-12-07T08:29:56;8.70;;;1.40;;
46815;SDS011;32787;53.316;8.670;2022-12-07T08:32:43;8.60;;;1.63;;
46815;SDS011;32787;53.316;8.670;2022-12-07T08:35:32;4.38;;;0.98;;
46815;SDS011;32787;53.316;8.670;2022-12-07T08:38:19;6.03;;;1.50;;
46815;SDS011;32787;53.316;8.670;2022-12-07T08:41:05;9.98;;;1.67;;
46815;SDS011;32787;53.316;8.670;2022-12-07T08:43:51;3.30;;;1.25;;
46815;SDS011;32787;53.316;8.670;2022-12-07T08:46:56;6.15;;;1.30;;
46815;SDS011;32787;53.316;8.670;2022-12-07T08:49:47;3.83;;;1.40;;
46815;SDS011;32787;53.316;8.670;2022-12-07T08:52:35;7.38;;;1.45;;
46815;SDS011;32787;53.316;8.670;2022-12-07T08:55:22;6.35;;;1.27;;
46815;SDS011;32787;53.316;8.670;2022-12-07T08:58:09;6.85;;;1.67;;
46815;SDS011;32787;53.316;8.670;2022-12-07T09:00:55;13.57;;;1.73;;
46815;SDS011;32787;53.316;8.670;2022-12-07T09:03:40;5.68;;;1.30;;
46815;SDS011;32787;53.316;8.670;2022-12-07T09:06:27;8.05;;;1.48;;
46815;SDS011;32787;53.316;8.670;2022-12-07T09:09:13;8.23;;;1.05;;
46815;SDS011;32787;53.316;8.670;2022-12-07T09:11:59;6.10;;;1.15;;
46815;SDS011;32787;53.316;8.670;2022-12-07T09:14:45;9.95;;;1.48;;
46815;SDS011;32787;53.316;8.670;2022-12-07T09:17:32;12.93;;;1.40;;
46815;SDS011;32787;53.316;8.670;2022-12-07T09:20:19;3.70;;;1.05;;
46815;SDS011;32787;53.316;8.670;2022-12-07T09:23:05;6.93;;;1.08;;
46815;SDS011;32787;53.316;8.670;2022-12-07T09:25:52;11.05;;;1.75;;
46815;SDS011;32787;53.316;8.670;2022-12-07T09:28:38;14.88;;;5.05;;
46815;SDS011;32787;53.316;8.670;2022-12-07T09:31:24;5.93;;;0.95;;
46815;SDS011;32787;53.316;8.670;2022-12-07T09:34:11;5.72;;;1.00;;
46815;SDS011;32787;53.316;8.670;2022-12-07T09:36:57;8.95;;;1.40;;
46815;SDS011;32787;53.316;8.670;2022-12-07T09:39:44;5.45;;;1.10;;
46815;SDS011;32787;53.316;8.670;2022-12-07T09:42:10;8.55;;;1.20;;
46815;SDS011;32787;53.316;8.670;2022-12-07T09:44:50;7.85;;;1.35;;
46815;SDS011;32787;53.316;8.670;2022-12-07T09:47:15;7.03;;;1.08;;
46815;SDS011;32787;53.316;8.670;2022-12-07T09:49:41;9.23;;;1.00;;
46815;SDS011;32787;53.316;8.670;2022-12-07T09:54:33;5.93;;;1.27;;
46815;SDS011;32787;53.316;8.670;2022-12-07T09:57:01;3.97;;;1.20;;
46815;SDS011;32787;53.316;8.670;2022-12-07T09:59:27;5.40;;;1.20;;
46815;SDS011;32787;53.316;8.670;2022-12-07T10:01:53;5.90;;;1.83;;
46815;SDS011;32787;53.316;8.670;2022-12-07T10:04:22;7.72;;;1.52;;
46815;SDS011;32787;53.316;8.670;2022-12-07T10:06:50;8.63;;;2.00;;
46815;SDS011;32787;53.316;8.670;2022-12-07T10:09:34;7.80;;;1.63;;
46815;SDS011;32787;53.316;8.670;2022-12-07T10:12:21;10.13;;;1.63;;
46815;SDS011;32787;53.316;8.670;2022-12-07T10:15:07;7.72;;;1.70;;
46815;SDS011;32787;53.316;8.670;2022-12-07T10:17:53;6.72;;;2.22;;
46815;SDS011;32787;53.316;8.670;2022-12-07T10:20:39;7.60;;;2.13;;
46815;SDS011;32787;53.316;8.670;2022-12-07T10:23:25;6.72;;;2.03;;
46815;SDS011;32787;53.316;8.670;2022-12-07T10:32:02;7.38;;;2.22;;
46815;SDS011;32787;53.316;8.670;2022-12-07T10:38:07;5.00;;;1.50;;
46815;SDS011;32787;53.316;8.670;2022-12-07T10:41:02;6.75;;;1.70;;
46815;SDS011;32787;53.316;8.670;2022-12-07T10:43:52;5.55;;;1.67;;
46815;SDS011;32787;53.316;8.670;2022-12-07T10:46:43;12.77;;;2.17;;
46815;SDS011;32787;53.316;8.670;2022-12-07T10:52:38;4.07;;;1.30;;
46815;SDS011;32787;53.316;8.670;2022-12-07T11:01:57;8.52;;;1.80;;
46815;SDS011;32787;53.316;8.670;2022-12-07T11:04:59;8.45;;;1.67;;
46815;SDS011;32787;53.316;8.670;2022-12-07T11:14:12;6.68;;;1.65;;
46815;SDS011;32787;53.316;8.670;2022-12-07T11:17:01;9.82;;;1.60;;
46815;SDS011;32787;53.316;8.670;2022-12-07T11:20:02;5.55;;;1.58;;
46815;SDS011;32787;53.316;8.670;2022-12-07T11:26:00;7.28;;;1.35;;
46815;SDS011;32787;53.316;8.670;2022-12-07T11:38:30;9.75;;;1.10;;
46815;SDS011;32787;53.316;8.670;2022-12-07T11:41:38;6.43;;;0.95;;
46815;SDS011;32787;53.316;8.670;2022-12-07T11:44:30;5.72;;;0.90;;
46815;SDS011;32787;53.316;8.670;2022-12-07T11:50:58;7.22;;;1.20;;
46815;SDS011;32787;53.316;8.670;2022-12-07T11:53:45;4.45;;;0.80;;
46815;SDS011;32787;53.316;8.670;2022-12-07T11:56:39;6.53;;;1.05;;
46815;SDS011;32787;53.316;8.670;2022-12-07T11:59:47;5.82;;;2.03;;
46815;SDS011;32787;53.316;8.670;2022-12-07T12:02:37;6.25;;;1.48;;
46815;SDS011;32787;53.316;8.670;2022-12-07T12:05:34;5.30;;;0.82;;
46815;SDS011;32787;53.316;8.670;2022-12-07T12:08:30;5.22;;;0.90;;
46815;SDS011;32787;53.316;8.670;2022-12-07T12:20:51;8.10;;;0.90;;
46815;SDS011;32787;53.316;8.670;2022-12-07T12:23:44;2.53;;;0.50;;
46815;SDS011;32787;53.316;8.670;2022-12-07T12:26:36;4.43;;;0.70;;
46815;SDS011;32787;53.316;8.670;2022-12-07T12:29:39;7.65;;;2.78;;
46815;SDS011;32787;53.316;8.670;2022-12-07T12:32:39;5.45;;;0.75;;
46815;SDS011;32787;53.316;8.670;2022-12-07T12:45:02;2.38;;;0.52;;
46815;SDS011;32787;53.316;8.670;2022-12-07T12:51:37;4.97;;;1.00;;
46815;SDS011;32787;53.316;8.670;2022-12-07T13:03:02;8.88;;;0.90;;
46815;SDS011;32787;53.316;8.670;2022-12-07T13:05:48;4.05;;;0.70;;
46815;SDS011;32787;53.316;8.670;2022-12-07T13:09:18;7.15;;;0.90;;
46815;SDS011;32787;53.316;8.670;2022-12-07T13:12:14;3.78;;;0.75;;
46815;SDS011;32787;53.316;8.670;2022-12-07T13:15:27;7.53;;;0.80;;
46815;SDS011;32787;53.316;8.670;2022-12-07T13:24:06;4.05;;;0.60;;
46815;SDS011;32787;53.316;8.670;2022-12-07T13:26:35;5.07;;;0.73;;
46815;SDS011;32787;53.316;8.670;2022-12-07T13:31:43;6.40;;;0.98;;
46815;SDS011;32787;53.316;8.670;2022-12-07T13:34:32;4.13;;;0.65;;
46815;SDS011;32787;53.316;8.670;2022-12-07T13:39:57;7.72;;;1.00;;
46815;SDS011;32787;53.316;8.670;2022-12-07T13:42:43;3.67;;;0.88;;
46815;SDS011;32787;53.316;8.670;2022-12-07T13:45:25;3.83;;;0.63;;
46815;SDS011;32787;53.316;8.670;2022-12-07T13:48:22;8.20;;;0.80;;
46815;SDS011;32787;53.316;8.670;2022-12-07T13:50:56;11.38;;;0.93;;
46815;SDS011;32787;53.316;8.670;2022-12-07T13:53:22;4.35;;;0.68;;
46815;SDS011;32787;53.316;8.670;2022-12-07T13:55:49;3.55;;;0.60;;
46815;SDS011;32787;53.316;8.670;2022-12-07T13:58:15;7.78;;;0.70;;
46815;SDS011;32787;53.316;8.670;2022-12-07T14:00:41;3.63;;;0.90;;
46815;SDS011;32787;53.316;8.670;2022-12-07T14:05:42;3.45;;;0.90;;
46815;SDS011;32787;53.316;8.670;2022-12-07T14:10:36;8.10;;;0.80;;
46815;SDS011;32787;53.316;8.670;2022-12-07T14:13:03;7.45;;;1.35;;
46815;SDS011;32787;53.316;8.670;2022-12-07T14:15:51;9.25;;;1.55;;
46815;SDS011;32787;53.316;8.670;2022-12-07T14:18:24;7.75;;;1.70;;
46815;SDS011;32787;53.316;8.670;2022-12-07T14:23:39;6.70;;;2.05;;
46815;SDS011;32787;53.316;8.670;2022-12-07T14:26:15;7.30;;;2.22;;
46815;SDS011;32787;53.316;8.670;2022-12-07T14:28:44;15.40;;;3.07;;
46815;SDS011;32787;53.316;8.670;2022-12-07T14:31:12;16.15;;;6.72;;
46815;SDS011;32787;53.316;8.670;2022-12-07T14:33:41;10.93;;;4.65;;
46815;SDS011;32787;53.316;8.670;2022-12-07T14:36:13;12.75;;;6.25;;
46815;SDS011;32787;53.316;8.670;2022-12-07T14:38:39;9.60;;;2.88;;
46815;SDS011;32787;53.316;8.670;2022-12-07T14:41:06;8.65;;;2.20;;
46815;SDS011;32787;53.316;8.670;2022-12-07T14:43:57;3.25;;;1.00;;
46815;SDS011;32787;53.316;8.670;2022-12-07T14:46:23;5.95;;;0.98;;
46815;SDS011;32787;53.316;8.670;2022-12-07T14:48:49;5.95;;;1.00;;
46815;SDS011;32787;53.316;8.670;2022-12-07T14:51:15;6.85;;;1.20;;
46815;SDS011;32787;53.316;8.670;2022-12-07T14:53:44;6.18;;;1.05;;
46815;SDS011;32787;53.316;8.670;2022-12-07T14:56:14;5.32;;;1.13;;
46815;SDS011;32787;53.316;8.670;2022-12-07T14:58:39;2.85;;;0.80;;
46815;SDS011;32787;53.316;8.670;2022-12-07T15:01:05;3.15;;;0.70;;
46815;SDS011;32787;53.316;8.670;2022-12-07T15:03:31;2.40;;;0.70;;
46815;SDS011;32787;53.316;8.670;2022-12-07T15:05:59;8.07;;;1.10;;
46815;SDS011;32787;53.316;8.670;2022-12-07T15:08:26;7.68;;;1.30;;
46815;SDS011;32787;53.316;8.670;2022-12-07T15:10:51;6.13;;;1.35;;
46815;SDS011;32787;53.316;8.670;2022-12-07T15:13:17;6.45;;;1.05;;
46815;SDS011;32787;53.316;8.670;2022-12-07T15:16:01;6.75;;;1.40;;
46815;SDS011;32787;53.316;8.670;2022-12-07T15:18:27;4.80;;;1.60;;
46815;SDS011;32787;53.316;8.670;2022-12-07T15:20:53;5.85;;;1.30;;
46815;SDS011;32787;53.316;8.670;2022-12-07T15:23:19;9.07;;;2.60;;
46815;SDS011;32787;53.316;8.670;2022-12-07T15:25:45;40.95;;;16.00;;
46815;SDS011;32787;53.316;8.670;2022-12-07T15:28:13;17.83;;;8.13;;
46815;SDS011;32787;53.316;8.670;2022-12-07T15:30:39;9.80;;;3.15;;
46815;SDS011;32787;53.316;8.670;2022-12-07T15:33:07;6.72;;;2.15;;
46815;SDS011;32787;53.316;8.670;2022-12-07T15:35:33;6.35;;;1.63;;
46815;SDS011;32787;53.316;8.670;2022-12-07T15:37:58;5.80;;;1.77;;
46815;SDS011;32787;53.316;8.670;2022-12-07T15:40:24;9.63;;;2.00;;
46815;SDS011;32787;53.316;8.670;2022-12-07T15:42:50;4.68;;;1.85;;
46815;SDS011;32787;53.316;8.670;2022-12-07T15:45:15;9.52;;;4.47;;
46815;SDS011;32787;53.316;8.670;2022-12-07T15:47:41;16.48;;;4.13;;
46815;SDS011;32787;53.316;8.670;2022-12-07T15:50:10;8.85;;;2.92;;
46815;SDS011;32787;53.316;8.670;2022-12-07T15:52:37;7.40;;;2.70;;
46815;SDS011;32787;53.316;8.670;2022-12-07T15:55:03;9.68;;;3.10;;
46815;SDS011;32787;53.316;8.670;2022-12-07T15:57:30;7.20;;;2.70;;
46815;SDS011;32787;53.316;8.670;2022-12-07T15:59:56;9.15;;;2.53;;
46815;SDS011;32787;53.316;8.670;2022-12-07T16:02:22;9.95;;;3.70;;
46815;SDS011;32787;53.316;8.670;2022-12-07T16:04:48;9.52;;;4.68;;
46815;SDS011;32787;53.316;8.670;2022-12-07T16:07:15;10.23;;;3.97;;
46815;SDS011;32787;53.316;8.670;2022-12-07T16:09:41;9.93;;;3.20;;
46815;SDS011;32787;53.316;8.670;2022-12-07T16:14:35;12.57;;;3.40;;
46815;SDS011;32787;53.316;8.670;2022-12-07T16:17:01;9.23;;;3.05;;
46815;SDS011;32787;53.316;8.670;2022-12-07T16:19:29;8.77;;;2.83;;
46815;SDS011;32787;53.316;8.670;2022-12-07T16:21:55;8.07;;;3.05;;
46815;SDS011;32787;53.316;8.670;2022-12-07T16:24:21;9.90;;;3.15;;
46815;SDS011;32787;53.316;8.670;2022-12-07T16:26:47;9.95;;;3.75;;
46815;SDS011;32787;53.316;8.670;2022-12-07T16:29:13;9.63;;;3.42;;
46815;SDS011;32787;53.316;8.670;2022-12-07T16:31:39;8.93;;;3.35;;
46815;SDS011;32787;53.316;8.670;2022-12-07T16:34:05;7.45;;;3.22;;
46815;SDS011;32787;53.316;8.670;2022-12-07T16:36:31;8.43;;;3.15;;
46815;SDS011;32787;53.316;8.670;2022-12-07T16:39:00;9.20;;;3.58;;
46815;SDS011;32787;53.316;8.670;2022-12-07T16:41:26;8.07;;;3.17;;
46815;SDS011;32787;53.316;8.670;2022-12-07T16:43:51;5.85;;;3.05;;
46815;SDS011;32787;53.316;8.670;2022-12-07T16:46:17;7.93;;;4.47;;
46815;SDS011;32787;53.316;8.670;2022-12-07T16:48:43;12.95;;;6.60;;
46815;SDS011;32787;53.316;8.670;2022-12-07T16:51:10;11.43;;;4.80;;
46815;SDS011;32787;53.316;8.670;2022-12-07T16:53:37;10.90;;;5.65;;
46815;SDS011;32787;53.316;8.670;2022-12-07T16:56:05;13.63;;;7.30;;
46815;SDS011;32787;53.316;8.670;2022-12-07T16:58:35;11.63;;;6.85;;
46815;SDS011;32787;53.316;8.670;2022-12-07T17:01:08;13.95;;;6.00;;
46815;SDS011;32787;53.316;8.670;2022-12-07T17:03:45;11.10;;;5.90;;
46815;SDS011;32787;53.316;8.670;2022-12-07T17:06:12;9.38;;;4.85;;
46815;SDS011;32787;53.316;8.670;2022-12-07T17:08:38;7.82;;;3.53;;
46815;SDS011;32787;53.316;8.670;2022-12-07T17:11:08;10.27;;;4.63;;
46815;SDS011;32787;53.316;8.670;2022-12-07T17:13:41;13.32;;;5.20;;
46815;SDS011;32787;53.316;8.670;2022-12-07T17:16:26;10.02;;;4.80;;
46815;SDS011;32787;53.316;8.670;2022-12-07T17:18:53;13.57;;;7.32;;
46815;SDS011;32787;53.316;8.670;2022-12-07T17:21:19;12.88;;;7.93;;
46815;SDS011;32787;53.316;8.670;2022-12-07T17:23:44;10.73;;;4.97;;
46815;SDS011;32787;53.316;8.670;2022-12-07T17:26:12;21.17;;;6.60;;
46815;SDS011;32787;53.316;8.670;2022-12-07T17:28:42;16.23;;;5.65;;
46815;SDS011;32787;53.316;8.670;2022-12-07T17:31:09;16.23;;;7.03;;
46815;SDS011;32787;53.316;8.670;2022-12-07T17:33:36;13.63;;;6.82;;
46815;SDS011;32787;53.316;8.670;2022-12-07T17:36:11;15.68;;;6.20;;
46815;SDS011;32787;53.316;8.670;2022-12-07T17:38:39;11.60;;;5.65;;
46815;SDS011;32787;53.316;8.670;2022-12-07T17:41:09;14.40;;;6.65;;
46815;SDS011;32787;53.316;8.670;2022-12-07T17:43:36;15.50;;;5.65;;
46815;SDS011;32787;53.316;8.670;2022-12-07T17:46:06;9.75;;;5.20;;
46815;SDS011;32787;53.316;8.670;2022-12-07T17:48:32;15.20;;;5.50;;
46815;SDS011;32787;53.316;8.670;2022-12-07T17:51:01;13.30;;;6.45;;
46815;SDS011;32787;53.316;8.670;2022-12-07T17:53:49;19.60;;;9.52;;
46815;SDS011;32787;53.316;8.670;2022-12-07T17:56:15;19.08;;;9.95;;
46815;SDS011;32787;53.316;8.670;2022-12-07T17:58:41;17.23;;;8.32;;
46815;SDS011;32787;53.316;8.670;2022-12-07T18:01:07;23.60;;;9.15;;
46815;SDS011;32787;53.316;8.670;2022-12-07T18:03:34;18.10;;;8.18;;
46815;SDS011;32787;53.316;8.670;2022-12-07T18:05:59;17.77;;;7.68;;
46815;SDS011;32787;53.316;8.670;2022-12-07T18:08:25;14.15;;;6.72;;
46815;SDS011;32787;53.316;8.670;2022-12-07T18:10:57;15.85;;;8.00;;
46815;SDS011;32787;53.316;8.670;2022-12-07T18:13:23;17.42;;;9.38;;
46815;SDS011;32787;53.316;8.670;2022-12-07T18:16:01;13.52;;;7.40;;
46815;SDS011;32787;53.316;8.670;2022-12-07T18:18:30;13.20;;;6.78;;